Time;durP1;ratioP1;P1;durP2;ratioP2;P2;SDS_P1;SDS_P2;PMS_P1;PMS_P2;Temp;Humidity;BMP_temperature;BMP_pressure;BME280_temperature;BME280_humidity;BME280_pressure;Samples;Min_cycle;Max_cycle;Signal;HPM_P1;HPM_P2
2023/09/12 04:00:48;;;;;;;4.77;2.50;;;16.60;97.30;;;;;;5886230;23;20512;-84
2023/09/12 04:03:18;;;;;;;3.70;2.37;;;16.60;97.30;;;;;;5005215;28;20938;-86
2023/09/12 04:05:49;;;;;;;5.43;2.60;;;16.60;97.30;;;;;;4995098;28;20460;-85
2023/09/12 04:08:15;;;;;;;1.90;1.80;;;16.60;97.30;;;;;;5003769;28;20443;-85
2023/09/12 04:10:40;;;;;;;5.13;2.90;;;16.50;97.30;;;;;;5011964;28;20439;-85
2023/09/12 04:13:09;;;;;;;4.90;2.50;;;16.50;97.30;;;;;;5018981;28;20613;-87
2023/09/12 04:15:34;;;;;;;4.63;3.27;;;16.60;97.30;;;;;;5039383;23;20694;-82
2023/09/12 04:18:00;;;;;;;3.23;2.90;;;16.60;97.30;;;;;;4993882;28;20488;-82
2023/09/12 04:20:25;;;;;;;5.50;2.63;;;16.50;97.30;;;;;;4995442;28;20178;-83
2023/09/12 04:22:51;;;;;;;3.27;2.33;;;16.50;97.30;;;;;;4985165;28;20558;-82
2023/09/12 04:25:19;;;;;;;2.90;1.70;;;16.50;97.30;;;;;;5001081;28;20323;-82
2023/09/12 04:27:45;;;;;;;2.47;2.20;;;16.50;97.30;;;;;;5006394;28;20177;-82
2023/09/12 04:30:11;;;;;;;3.53;2.53;;;16.50;97.30;;;;;;5000444;28;20810;-81
2023/09/12 04:32:37;;;;;;;5.60;3.80;;;16.50;97.30;;;;;;5006462;28;20208;-83
2023/09/12 04:35:03;;;;;;;4.37;2.57;;;16.60;97.30;;;;;;5007517;28;20197;-82
2023/09/12 04:37:28;;;;;;;2.77;1.97;;;16.60;97.30;;;;;;5014935;28;20184;-82
2023/09/12 04:39:54;;;;;;;2.30;1.90;;;16.60;97.30;;;;;;5007875;28;20516;-81
2023/09/12 04:42:20;;;;;;;3.13;2.33;;;16.60;97.30;;;;;;5007334;28;20196;-83
2023/09/12 04:44:46;;;;;;;6.67;3.77;;;16.60;97.30;;;;;;5011652;28;20213;-81
2023/09/12 04:47:12;;;;;;;6.90;3.53;;;16.60;97.30;;;;;;5015075;28;21008;-82
2023/09/12 04:49:38;;;;;;;2.87;2.43;;;16.60;97.30;;;;;;5000542;28;20174;-83
2023/09/12 04:52:04;;;;;;;7.33;3.43;;;16.60;97.30;;;;;;5014137;28;20185;-82
2023/09/12 04:54:30;;;;;;;3.50;3.30;;;16.60;97.30;;;;;;5001647;28;20756;-80
2023/09/12 04:56:55;;;;;;;3.97;2.40;;;16.60;97.30;;;;;;5014268;28;20455;-84
2023/09/12 04:59:21;;;;;;;3.43;3.07;;;16.60;97.30;;;;;;5014535;28;20180;-83
2023/09/12 05:01:46;;;;;;;3.90;2.77;;;16.60;97.30;;;;;;5012910;28;20192;-83
2023/09/12 05:04:12;;;;;;;2.93;2.73;;;16.60;97.30;;;;;;5003574;28;20277;-82
2023/09/12 05:06:38;;;;;;;4.73;3.13;;;16.60;97.30;;;;;;5006386;28;20215;-82
2023/09/12 05:09:05;;;;;;;5.17;3.10;;;16.60;97.30;;;;;;5014070;28;20188;-82
2023/09/12 05:11:30;;;;;;;3.53;3.33;;;16.60;97.30;;;;;;5013955;28;20846;-82
2023/09/12 05:13:56;;;;;;;7.07;3.17;;;16.60;97.30;;;;;;5012100;28;20534;-83
2023/09/12 05:16:22;;;;;;;7.03;2.90;;;16.60;97.30;;;;;;5010934;28;20231;-82
2023/09/12 05:18:49;;;;;;;8.30;3.03;;;16.60;97.30;;;;;;5014551;28;20188;-82
2023/09/12 05:21:15;;;;;;;12.63;4.13;;;16.60;97.30;;;;;;5010152;28;20196;-82
2023/09/12 05:23:40;;;;;;;7.17;3.27;;;16.60;97.30;;;;;;5014779;28;20507;-81
2023/09/12 05:26:06;;;;;;;3.80;3.43;;;16.60;97.30;;;;;;5003023;28;20201;-82
2023/09/12 05:28:31;;;;;;;4.90;2.80;;;16.60;97.30;;;;;;5011105;28;20583;-81
2023/09/12 05:30:57;;;;;;;4.17;3.47;;;16.60;97.30;;;;;;5006307;28;20197;-82
2023/09/12 05:33:23;;;;;;;5.70;2.97;;;16.60;97.30;;;;;;5014604;28;20377;-82
2023/09/12 05:35:48;;;;;;;1.67;1.60;;;16.60;97.30;;;;;;5009451;28;20211;-79
2023/09/12 05:38:14;;;;;;;2.37;2.23;;;16.60;97.30;;;;;;5010039;28;20185;-82
2023/09/12 05:40:39;;;;;;;3.47;2.50;;;16.70;97.30;;;;;;5003193;28;20189;-83
2023/09/12 05:43:05;;;;;;;2.63;2.43;;;16.70;97.30;;;;;;5005662;28;20713;-82
2023/09/12 05:45:32;;;;;;;5.90;2.80;;;16.70;97.30;;;;;;5014699;28;20216;-82
2023/09/12 05:47:58;;;;;;;3.00;2.63;;;16.80;97.30;;;;;;5014151;28;20177;-82
2023/09/12 05:50:24;;;;;;;7.20;4.47;;;16.80;97.30;;;;;;5014437;28;20494;-82
2023/09/12 05:52:49;;;;;;;2.63;2.23;;;16.80;97.30;;;;;;5014591;28;20506;-82
2023/09/12 05:55:15;;;;;;;3.10;2.10;;;16.90;97.30;;;;;;5002441;28;20269;-82
2023/09/12 05:57:41;;;;;;;3.90;2.60;;;16.90;97.30;;;;;;5013771;28;20192;-81
2023/09/12 06:00:11;;;;;;;1.83;1.80;;;17.00;97.30;;;;;;5007984;28;20185;-80
2023/09/12 06:02:37;;;;;;;2.90;2.70;;;17.00;97.30;;;;;;5007755;28;20177;-81
2023/09/12 06:05:06;;;;;;;4.93;3.40;;;17.00;97.30;;;;;;5013514;28;20449;-82
2023/09/12 06:07:32;;;;;;;3.20;2.23;;;17.00;97.30;;;;;;5002841;28;20506;-83
2023/09/12 06:09:57;;;;;;;4.37;2.87;;;17.10;97.30;;;;;;5008195;28;20435;-81
2023/09/12 06:12:23;;;;;;;3.17;2.50;;;17.10;97.30;;;;;;5002587;28;20823;-82
2023/09/12 06:14:49;;;;;;;6.23;2.73;;;17.20;97.30;;;;;;5003554;28;20237;-81
2023/09/12 06:17:14;;;;;;;6.40;4.80;;;17.30;97.30;;;;;;5005404;28;20182;-80
2023/09/12 06:19:40;;;;;;;5.23;3.53;;;17.40;97.30;;;;;;4996816;28;20257;-82
2023/09/12 06:22:05;;;;;;;5.43;3.40;;;17.40;97.30;;;;;;5014902;28;20184;-81
2023/09/12 06:24:31;;;;;;;3.27;2.97;;;17.50;97.30;;;;;;5006052;28;20224;-81
2023/09/12 06:26:57;;;;;;;4.93;2.70;;;17.60;97.30;;;;;;5016537;28;20263;-81
2023/09/12 06:29:22;;;;;;;4.27;4.00;;;17.60;97.30;;;;;;5012704;28;20170;-83
2023/09/12 06:31:48;;;;;;;5.47;4.17;;;17.70;97.30;;;;;;5022612;28;20901;-84
2023/09/12 06:34:13;;;;;;;3.80;2.40;;;17.80;97.30;;;;;;5020880;28;20236;-81
2023/09/12 06:36:41;;;;;;;5.83;3.60;;;17.90;97.30;;;;;;5002375;28;20194;-81
2023/09/12 06:39:09;;;;;;;2.20;2.00;;;17.90;97.30;;;;;;4998651;28;20236;-81
2023/09/12 06:41:35;;;;;;;4.67;3.77;;;18.00;97.30;;;;;;5014985;28;20452;-83
2023/09/12 06:44:02;;;;;;;3.00;2.80;;;18.10;97.30;;;;;;5013772;28;20814;-81
2023/09/12 06:46:28;;;;;;;4.77;2.77;;;18.20;97.30;;;;;;5012558;28;20212;-81
2023/09/12 06:48:53;;;;;;;2.90;2.73;;;18.30;97.30;;;;;;5001134;28;20797;-82
2023/09/12 06:51:24;;;;;;;4.13;3.33;;;18.40;97.30;;;;;;4998296;28;20640;-82
2023/09/12 06:53:51;;;;;;;7.60;4.07;;;18.50;97.30;;;;;;4998607;28;20224;-82
2023/09/12 06:56:16;;;;;;;3.77;3.50;;;18.60;97.30;;;;;;5001593;28;20839;-82
2023/09/12 06:58:42;;;;;;;4.10;1.93;;;18.70;97.30;;;;;;5013964;28;20455;-81
2023/09/12 07:01:07;;;;;;;11.53;3.70;;;18.80;97.30;;;;;;5017559;28;20195;-83
2023/09/12 07:03:34;;;;;;;4.43;2.77;;;18.90;97.30;;;;;;5013522;28;20181;-81
2023/09/12 07:06:00;;;;;;;4.93;2.80;;;19.00;97.30;;;;;;5005403;28;20240;-81
2023/09/12 07:08:26;;;;;;;4.30;2.20;;;19.10;97.30;;;;;;4998419;28;20444;-81
2023/09/12 07:10:54;;;;;;;3.70;3.00;;;19.10;97.30;;;;;;5013523;28;20415;-82
2023/09/12 07:13:23;;;;;;;2.93;2.73;;;19.20;97.30;;;;;;5011133;28;20455;-83
2023/09/12 07:15:52;;;;;;;4.33;2.87;;;19.30;97.30;;;;;;5018120;28;20482;-79
2023/09/12 07:18:19;;;;;;;3.93;2.77;;;19.40;97.30;;;;;;5008961;28;20448;-82
2023/09/12 07:20:45;;;;;;;4.67;4.37;;;19.50;97.30;;;;;;5015051;28;20522;-83
2023/09/12 07:23:11;;;;;;;3.07;2.20;;;19.60;97.30;;;;;;5013400;28;20520;-82
2023/09/12 07:25:40;;;;;;;19.47;2.47;;;19.70;97.30;;;;;;5004674;28;20546;-81
2023/09/12 07:28:07;;;;;;;2.90;2.23;;;19.80;97.30;;;;;;5000761;28;20533;-81
2023/09/12 07:30:33;;;;;;;3.27;2.20;;;19.80;97.30;;;;;;5004396;28;20519;-82
2023/09/12 07:32:58;;;;;;;7.17;3.23;;;20.00;97.30;;;;;;4998861;28;20877;-82
2023/09/12 07:35:24;;;;;;;3.57;2.23;;;20.10;97.30;;;;;;5004928;28;20639;-82
2023/09/12 07:37:50;;;;;;;2.47;2.03;;;20.10;97.30;;;;;;4997360;28;20178;-79
2023/09/12 07:40:16;;;;;;;1.60;1.50;;;20.20;97.30;;;;;;5001167;28;20597;-83
2023/09/12 07:42:41;;;;;;;2.10;1.83;;;20.40;97.30;;;;;;5009350;28;20443;-83
2023/09/12 07:45:07;;;;;;;2.90;1.90;;;20.50;97.30;;;;;;5005480;28;20296;-81
2023/09/12 07:47:33;;;;;;;11.80;2.17;;;20.60;97.30;;;;;;5010591;28;20236;-81
2023/09/12 07:50:00;;;;;;;2.87;2.13;;;20.70;97.30;;;;;;5009357;28;20420;-82
2023/09/12 07:52:26;;;;;;;2.57;1.63;;;20.80;97.30;;;;;;5017507;28;20170;-81
2023/09/12 07:54:56;;;;;;;4.07;2.67;;;20.90;97.30;;;;;;5008779;28;20441;-82
2023/09/12 07:57:22;;;;;;;5.60;2.33;;;21.00;97.30;;;;;;5016759;28;20420;-82
2023/09/12 07:59:48;;;;;;;10.90;3.67;;;21.10;97.30;;;;;;5008504;28;20428;-82
2023/09/12 08:02:13;;;;;;;8.60;2.70;;;21.20;97.30;;;;;;5017747;28;21150;-82
2023/09/12 08:04:39;;;;;;;9.53;3.37;;;21.30;97.30;;;;;;5008723;28;20200;-82
2023/09/12 08:07:04;;;;;;;4.43;2.00;;;21.40;97.30;;;;;;5008599;28;20213;-82
2023/09/12 08:09:52;;;;;;;1.90;1.63;;;21.50;97.30;;;;;;5018116;28;20197;-82
2023/09/12 08:12:18;;;;;;;4.77;3.10;;;21.60;97.30;;;;;;5004556;28;20204;-81
2023/09/12 08:14:45;;;;;;;3.97;2.40;;;21.70;97.30;;;;;;5004598;28;20456;-81
2023/09/12 08:17:10;;;;;;;2.23;2.03;;;21.80;97.30;;;;;;4997965;28;20424;-82
2023/09/12 08:19:36;;;;;;;2.77;2.30;;;21.90;97.30;;;;;;5004379;28;20429;-82
2023/09/12 08:22:02;;;;;;;7.93;3.03;;;22.00;97.30;;;;;;5012216;28;20193;-82
2023/09/12 08:24:27;;;;;;;2.53;2.37;;;22.00;97.30;;;;;;5008766;28;20296;-82
2023/09/12 08:26:54;;;;;;;2.47;2.27;;;22.10;97.30;;;;;;5005479;28;20294;-81
2023/09/12 08:29:20;;;;;;;2.50;2.30;;;22.20;97.30;;;;;;5003779;28;20201;-82
2023/09/12 08:31:46;;;;;;;4.73;2.17;;;22.30;97.30;;;;;;5001827;28;20948;-82
2023/09/12 08:34:12;;;;;;;1.53;1.50;;;22.40;97.30;;;;;;5011917;28;20547;-82
2023/09/12 08:36:38;;;;;;;6.73;3.00;;;22.50;97.30;;;;;;4999033;28;20428;-83
2023/09/12 08:39:04;;;;;;;4.43;3.30;;;22.50;97.30;;;;;;5001714;28;20732;-82
2023/09/12 08:41:30;;;;;;;4.10;3.07;;;22.60;97.30;;;;;;5008433;28;20186;-83
2023/09/12 08:43:56;;;;;;;8.13;4.07;;;22.70;97.30;;;;;;5011079;28;20412;-81
2023/09/12 08:46:22;;;;;;;2.40;1.93;;;22.80;97.30;;;;;;5002990;28;20198;-81
2023/09/12 08:48:49;;;;;;;6.77;3.43;;;22.80;97.30;;;;;;5010884;28;20177;-81
2023/09/12 08:51:15;;;;;;;7.20;3.67;;;22.90;97.30;;;;;;5003464;28;20424;-82
2023/09/12 08:53:40;;;;;;;4.17;2.10;;;23.00;97.30;;;;;;5001339;28;20433;-84
2023/09/12 08:56:07;;;;;;;9.70;3.87;;;23.00;97.30;;;;;;4998756;28;20205;-82
2023/09/12 08:58:34;;;;;;;4.30;2.73;;;23.10;97.30;;;;;;5009370;28;20224;-81
2023/09/12 09:01:00;;;;;;;4.17;3.30;;;23.20;97.30;;;;;;5002380;28;20424;-82
2023/09/12 09:03:26;;;;;;;4.40;2.33;;;23.20;97.30;;;;;;4999905;28;20424;-82
2023/09/12 09:05:55;;;;;;;2.07;1.90;;;23.30;97.30;;;;;;4994890;28;20461;-82
2023/09/12 09:08:23;;;;;;;6.83;2.83;;;23.50;97.30;;;;;;5001663;28;20812;-82
2023/09/12 09:10:58;;;;;;;7.93;2.87;;;23.60;97.30;;;;;;5002359;28;20518;-83
2023/09/12 09:13:25;;;;;;;3.10;2.80;;;23.70;97.30;;;;;;5000226;28;20562;-83
2023/09/12 09:16:09;;;;;;;6.20;3.30;;;23.80;97.30;;;;;;4996453;28;20474;-83
2023/09/12 09:18:53;;;;;;;6.40;3.77;;;23.90;97.30;;;;;;4999923;28;20427;-82
2023/09/12 09:21:20;;;;;;;16.83;3.73;;;24.00;97.30;;;;;;5009026;28;20475;-82
2023/09/12 09:23:46;;;;;;;2.60;2.43;;;24.10;97.30;;;;;;5007210;28;20430;-83
2023/09/12 09:26:13;;;;;;;7.90;3.60;;;24.20;97.30;;;;;;4995587;28;20480;-82
2023/09/12 09:28:39;;;;;;;2.90;2.67;;;24.20;97.30;;;;;;5013224;28;20420;-82
2023/09/12 09:31:09;;;;;;;5.07;2.93;;;24.30;97.30;;;;;;4996754;28;20421;-82
2023/09/12 09:33:36;;;;;;;5.07;4.00;;;24.40;97.30;;;;;;4997521;28;20781;-83
2023/09/12 09:36:04;;;;;;;5.67;3.10;;;24.50;97.30;;;;;;5012335;28;20432;-83
2023/09/12 09:38:29;;;;;;;11.03;5.13;;;24.50;97.30;;;;;;5007753;28;20450;-83
2023/09/12 09:40:55;;;;;;;3.73;3.20;;;24.50;97.30;;;;;;4993135;28;20425;-82
2023/09/12 09:43:21;;;;;;;8.13;4.23;;;24.60;97.30;;;;;;4995988;28;20185;-81
2023/09/12 09:45:47;;;;;;;14.03;4.73;;;24.70;97.30;;;;;;4997494;28;20210;-83
2023/09/12 09:48:24;;;;;;;9.23;3.87;;;24.70;97.30;;;;;;4992376;28;21112;-83
2023/09/12 09:50:52;;;;;;;8.27;4.30;;;24.70;97.30;;;;;;4992467;28;20216;-83
2023/09/12 09:53:32;;;;;;;6.00;4.27;;;24.80;97.30;;;;;;4995273;28;20428;-83
2023/09/12 09:56:08;;;;;;;7.97;5.27;;;24.80;97.30;;;;;;5002911;28;20489;-82
2023/09/12 09:58:34;;;;;;;7.30;3.40;;;24.80;97.30;;;;;;4997395;28;20420;-83
2023/09/12 10:01:01;;;;;;;4.63;3.23;;;24.80;97.30;;;;;;5012045;28;20473;-82
2023/09/12 10:03:29;;;;;;;5.47;4.20;;;24.90;97.30;;;;;;4999974;28;20182;-83
2023/09/12 10:05:58;;;;;;;4.67;3.70;;;24.90;97.30;;;;;;4997726;28;20494;-83
2023/09/12 10:08:25;;;;;;;3.30;2.83;;;24.90;97.30;;;;;;4995220;28;20423;-83
2023/09/12 10:10:51;;;;;;;9.63;4.60;;;24.90;97.30;;;;;;5002689;28;20425;-83
2023/09/12 10:13:18;;;;;;;3.17;3.00;;;25.00;97.30;;;;;;5000998;28;20434;-84
2023/09/12 10:15:45;;;;;;;6.70;3.43;;;25.00;97.30;;;;;;5010988;28;20538;-84
2023/09/12 10:18:16;;;;;;;5.53;3.20;;;25.00;97.30;;;;;;5002308;28;20439;-84
2023/09/12 10:20:55;;;;;;;4.60;3.47;;;25.10;97.30;;;;;;5003215;28;20509;-83
2023/09/12 10:23:44;;;;;;;4.83;4.00;;;25.10;96.80;;;;;;5007629;28;20977;-84
2023/09/12 10:26:14;;;;;;;5.20;3.73;;;25.20;96.70;;;;;;5007574;28;20844;-83
2023/09/12 10:28:44;;;;;;;6.70;3.30;;;25.30;96.40;;;;;;5003001;28;20466;-85
2023/09/12 10:31:12;;;;;;;4.80;3.77;;;25.40;97.20;;;;;;5001439;28;20452;-84
2023/09/12 10:33:38;;;;;;;6.90;2.80;;;25.40;96.40;;;;;;4997363;28;20451;-84
2023/09/12 10:36:06;;;;;;;4.70;3.13;;;25.50;95.60;;;;;;5006064;28;20448;-84
2023/09/12 10:38:35;;;;;;;6.57;3.17;;;25.50;95.80;;;;;;5000735;28;20518;-84
2023/09/12 10:41:03;;;;;;;7.47;4.13;;;25.50;96.30;;;;;;5001062;28;20438;-83
2023/09/12 10:43:33;;;;;;;4.00;3.63;;;25.60;96.10;;;;;;5005670;28;20516;-84
2023/09/12 10:46:02;;;;;;;3.73;2.67;;;25.60;95.90;;;;;;5007185;28;20463;-84
2023/09/12 10:48:28;;;;;;;7.47;3.97;;;25.70;97.10;;;;;;4999287;28;20519;-84
2023/09/12 10:51:00;;;;;;;3.40;2.60;;;25.80;96.70;;;;;;4998289;28;21002;-83
2023/09/12 10:53:26;;;;;;;10.57;4.90;;;25.90;96.60;;;;;;4992836;28;20166;-83
2023/09/12 10:56:15;;;;;;;2.90;2.60;;;26.00;95.10;;;;;;4991612;28;20440;-84
2023/09/12 10:59:10;;;;;;;3.43;3.20;;;26.10;95.10;;;;;;5003307;28;20484;-84
2023/09/12 11:01:37;;;;;;;7.33;4.63;;;26.10;94.80;;;;;;4991409;28;20423;-83
2023/09/12 11:04:30;;;;;;;5.07;2.30;;;26.10;94.70;;;;;;4991841;28;20425;-82
2023/09/12 11:06:58;;;;;;;4.13;2.43;;;26.30;95.70;;;;;;4995240;28;20463;-83
2023/09/12 11:09:24;;;;;;;4.50;2.23;;;26.40;95.10;;;;;;5007607;28;20486;-83
2023/09/12 11:11:58;;;;;;;3.90;2.83;;;26.50;94.90;;;;;;5014504;28;20416;-84
2023/09/12 11:14:24;;;;;;;4.87;2.80;;;26.60;93.70;;;;;;5003914;28;20586;-83
2023/09/12 11:17:08;;;;;;;7.93;2.87;;;26.70;93.70;;;;;;5005617;28;20522;-83
2023/09/12 11:19:44;;;;;;;4.33;3.20;;;26.80;94.30;;;;;;5007891;28;20420;-84
2023/09/12 11:22:31;;;;;;;6.83;3.27;;;26.80;94.20;;;;;;5005713;28;20451;-83
2023/09/12 11:25:01;;;;;;;4.50;3.10;;;26.90;92.50;;;;;;5014340;28;20485;-83
2023/09/12 11:27:32;;;;;;;6.87;3.50;;;27.00;93.60;;;;;;5012174;28;20460;-83
2023/09/12 11:30:05;;;;;;;3.13;2.93;;;27.10;92.70;;;;;;5003680;28;20427;-83
2023/09/12 11:32:32;;;;;;;3.20;2.70;;;27.20;92.20;;;;;;5002569;28;20479;-84
2023/09/12 11:35:04;;;;;;;2.37;2.20;;;27.20;91.20;;;;;;4994289;28;20436;-84
2023/09/12 11:37:29;;;;;;;3.33;2.80;;;27.20;91.10;;;;;;4998926;28;20921;-84
2023/09/12 11:39:57;;;;;;;5.20;2.57;;;27.40;92.10;;;;;;4998805;28;20597;-84
2023/09/12 11:42:25;;;;;;;5.90;3.70;;;27.40;91.20;;;;;;5007884;28;20180;-84
2023/09/12 11:44:51;;;;;;;7.57;4.37;;;27.50;92.20;;;;;;5007813;28;20524;-84
2023/09/12 11:47:17;;;;;;;6.17;3.77;;;27.60;92.70;;;;;;4994053;28;20457;-83
2023/09/12 11:49:43;;;;;;;2.77;1.80;;;27.80;92.60;;;;;;4994202;28;20432;-85
2023/09/12 11:52:10;;;;;;;15.77;3.80;;;27.80;90.80;;;;;;5002749;28;20214;-83
2023/09/12 11:54:37;;;;;;;4.80;2.23;;;27.90;91.60;;;;;;5009784;28;20205;-83
2023/09/12 11:57:03;;;;;;;4.67;3.07;;;28.00;89.50;;;;;;5002465;28;20426;-83
2023/09/12 11:59:29;;;;;;;4.93;2.90;;;27.90;89.10;;;;;;5002834;28;20440;-82
2023/09/12 12:01:58;;;;;;;5.43;3.00;;;27.80;89.70;;;;;;5009125;28;20416;-84
2023/09/12 12:04:25;;;;;;;4.83;3.07;;;27.70;89.20;;;;;;5006669;28;20450;-83
2023/09/12 12:06:52;;;;;;;2.43;2.33;;;27.60;89.80;;;;;;5014861;28;20456;-83
2023/09/12 12:09:18;;;;;;;6.63;2.80;;;27.60;90.00;;;;;;5005574;28;20519;-83
2023/09/12 12:11:45;;;;;;;6.63;3.13;;;27.70;89.90;;;;;;4994421;28;20504;-83
2023/09/12 12:14:11;;;;;;;3.53;2.20;;;27.80;89.50;;;;;;4993733;28;20413;-83
2023/09/12 12:16:39;;;;;;;2.43;2.27;;;27.90;89.00;;;;;;5005761;28;20439;-83
2023/09/12 12:19:05;;;;;;;3.37;1.87;;;27.90;89.50;;;;;;5013907;28;20424;-84
2023/09/12 12:21:31;;;;;;;2.77;2.57;;;27.90;88.80;;;;;;5005278;28;20455;-83
2023/09/12 12:24:04;;;;;;;3.17;2.30;;;28.00;89.00;;;;;;5000353;28;20174;-82
2023/09/12 12:26:33;;;;;;;4.30;2.27;;;28.10;88.80;;;;;;4994827;28;20738;-84
2023/09/12 12:29:00;;;;;;;2.60;2.20;;;28.20;90.40;;;;;;5001679;28;20546;-84
2023/09/12 12:31:26;;;;;;;1.90;1.80;;;28.40;90.30;;;;;;4996862;28;20420;-83
2023/09/12 12:33:56;;;;;;;3.70;2.50;;;28.60;89.30;;;;;;4999287;28;20421;-83
2023/09/12 12:36:22;;;;;;;4.53;2.10;;;28.70;88.60;;;;;;4993229;28;20503;-84
2023/09/12 12:38:49;;;;;;;3.00;2.67;;;28.90;89.50;;;;;;5001542;28;20437;-83
2023/09/12 12:41:23;;;;;;;5.00;2.57;;;29.10;89.50;;;;;;4993347;28;20269;-83
2023/09/12 12:43:54;;;;;;;8.07;3.43;;;29.20;87.80;;;;;;4993278;28;20421;-84
2023/09/12 12:46:21;;;;;;;18.60;3.10;;;29.30;87.30;;;;;;5011131;28;20455;-84
2023/09/12 12:48:47;;;;;;;5.83;3.17;;;29.20;86.20;;;;;;5012862;28;20784;-84
2023/09/12 12:51:24;;;;;;;4.63;2.60;;;29.10;86.40;;;;;;5009318;28;20950;-83
2023/09/12 12:53:54;;;;;;;2.30;2.00;;;29.00;86.10;;;;;;4999241;28;20439;-85
2023/09/12 12:56:22;;;;;;;12.07;2.60;;;28.80;86.10;;;;;;4996452;28;20987;-84
2023/09/12 12:59:00;;;;;;;12.60;2.13;;;28.70;86.00;;;;;;5012683;28;20519;-84
2023/09/12 13:01:26;;;;;;;3.20;2.20;;;28.70;87.00;;;;;;5012796;28;20428;-82
2023/09/12 13:03:52;;;;;;;3.33;1.83;;;28.90;86.90;;;;;;5007385;28;21148;-84
2023/09/12 13:06:18;;;;;;;2.93;2.30;;;29.20;87.80;;;;;;5009703;28;20205;-83
2023/09/12 13:08:45;;;;;;;3.07;2.00;;;29.40;87.20;;;;;;5001769;28;21134;-83
2023/09/12 13:11:13;;;;;;;3.50;3.07;;;29.50;86.20;;;;;;4992737;28;20836;-84
2023/09/12 13:13:40;;;;;;;2.53;2.27;;;29.40;85.50;;;;;;4993054;28;20912;-84
2023/09/12 13:16:09;;;;;;;3.40;2.60;;;29.30;86.30;;;;;;5004088;28;20488;-84
2023/09/12 13:18:35;;;;;;;3.03;2.03;;;29.20;86.90;;;;;;5000893;28;20508;-83
2023/09/12 13:21:00;;;;;;;6.17;2.67;;;29.20;87.80;;;;;;4992588;28;20464;-82
2023/09/12 13:23:27;;;;;;;4.13;2.67;;;29.40;87.60;;;;;;5011436;28;20793;-83
2023/09/12 13:25:53;;;;;;;6.23;3.23;;;29.60;87.30;;;;;;5000983;28;20639;-83
2023/09/12 13:28:18;;;;;;;2.93;2.73;;;29.80;87.20;;;;;;4992987;28;20425;-83
2023/09/12 13:30:44;;;;;;;2.30;1.83;;;30.00;86.80;;;;;;5001191;28;20232;-82
2023/09/12 13:33:15;;;;;;;9.53;4.80;;;30.00;85.80;;;;;;5010424;28;20177;-83
2023/09/12 13:35:41;;;;;;;3.07;2.20;;;30.10;85.90;;;;;;4996321;28;20240;-82
2023/09/12 13:38:09;;;;;;;4.93;2.80;;;30.20;86.10;;;;;;5006550;28;20442;-83
2023/09/12 13:40:40;;;;;;;4.93;3.77;;;30.20;85.20;;;;;;5005276;28;20414;-82
2023/09/12 13:43:06;;;;;;;4.27;2.70;;;30.30;85.00;;;;;;5001357;28;20973;-84
2023/09/12 13:45:33;;;;;;;3.23;1.73;;;30.30;85.10;;;;;;5003461;28;20455;-83
2023/09/12 13:47:59;;;;;;;4.47;2.53;;;30.20;85.50;;;;;;5011979;28;20420;-84
2023/09/12 13:50:26;;;;;;;2.90;2.27;;;30.30;85.80;;;;;;5000968;28;20408;-83
2023/09/12 13:52:52;;;;;;;2.83;2.17;;;30.30;85.20;;;;;;5003553;28;20433;-82
2023/09/12 13:55:18;;;;;;;5.43;3.10;;;30.30;84.90;;;;;;5004517;28;20554;-83
2023/09/12 13:57:44;;;;;;;4.17;2.47;;;30.30;83.90;;;;;;5007085;28;20867;-83
2023/09/12 14:00:10;;;;;;;4.00;3.27;;;30.30;84.50;;;;;;5011541;28;20315;-82
2023/09/12 14:02:35;;;;;;;4.33;3.03;;;30.30;85.20;;;;;;5002044;28;20193;-83
2023/09/12 14:05:01;;;;;;;3.50;1.87;;;30.30;85.70;;;;;;5002921;28;20252;-84
2023/09/12 14:07:26;;;;;;;3.17;2.50;;;30.30;85.50;;;;;;5004513;28;20259;-82
2023/09/12 14:09:55;;;;;;;8.40;2.10;;;30.30;85.90;;;;;;5003376;28;20232;-83
2023/09/12 14:12:22;;;;;;;3.80;2.80;;;30.40;84.90;;;;;;5003406;28;20173;-83
2023/09/12 14:14:48;;;;;;;2.33;2.00;;;30.40;84.70;;;;;;5011249;28;20455;-84
2023/09/12 14:17:14;;;;;;;2.23;2.03;;;30.50;84.90;;;;;;5009073;28;20507;-84
2023/09/12 14:19:39;;;;;;;5.53;3.20;;;30.60;84.70;;;;;;5002895;28;20193;-84
2023/09/12 14:22:05;;;;;;;4.83;1.80;;;30.80;84.70;;;;;;5011227;28;20865;-84
2023/09/12 14:24:31;;;;;;;4.80;2.53;;;30.80;82.80;;;;;;5012298;28;20212;-84
2023/09/12 14:26:56;;;;;;;4.17;2.30;;;30.80;83.10;;;;;;5011449;28;20197;-84
2023/09/12 14:29:23;;;;;;;7.47;2.77;;;30.70;82.90;;;;;;5010161;28;20200;-83
2023/09/12 14:31:57;;;;;;;2.60;2.43;;;30.70;82.90;;;;;;5003225;28;20643;-83
2023/09/12 14:34:31;;;;;;;4.37;2.73;;;30.70;83.10;;;;;;4994686;28;20531;-84
2023/09/12 14:36:57;;;;;;;3.73;2.80;;;30.80;83.50;;;;;;5000820;28;20425;-83
2023/09/12 14:39:23;;;;;;;5.07;2.37;;;30.80;83.00;;;;;;5010247;28;20435;-83
2023/09/12 14:41:52;;;;;;;13.70;2.27;;;30.80;82.40;;;;;;5011212;28;20208;-84
2023/09/12 14:44:21;;;;;;;3.57;2.27;;;30.80;82.90;;;;;;5014589;28;20445;-84
2023/09/12 14:46:47;;;;;;;2.30;2.10;;;30.70;81.90;;;;;;5013345;28;20470;-83
2023/09/12 14:49:13;;;;;;;7.40;2.40;;;30.70;82.00;;;;;;5014926;28;20938;-84
2023/09/12 14:51:39;;;;;;;3.23;1.87;;;30.70;82.80;;;;;;5014982;28;20177;-84
2023/09/12 14:54:05;;;;;;;1.93;1.83;;;30.70;81.40;;;;;;5014710;28;20173;-83
2023/09/12 14:56:31;;;;;;;3.63;2.20;;;30.70;82.00;;;;;;5013119;28;20630;-83
2023/09/12 14:58:57;;;;;;;7.40;2.23;;;30.70;81.90;;;;;;5006474;28;20446;-83
2023/09/12 15:01:24;;;;;;;5.43;3.00;;;30.70;81.20;;;;;;5015911;28;21092;-83
2023/09/12 15:03:50;;;;;;;2.17;2.00;;;30.60;81.20;;;;;;5015234;28;20193;-83
2023/09/12 15:06:15;;;;;;;4.37;2.20;;;30.50;81.40;;;;;;5016776;28;20505;-83
2023/09/12 15:08:41;;;;;;;15.73;3.80;;;30.50;81.60;;;;;;5011091;28;20212;-83
2023/09/12 15:11:07;;;;;;;4.57;2.77;;;30.40;81.80;;;;;;5010294;28;20239;-83
2023/09/12 15:13:32;;;;;;;6.30;1.97;;;30.40;81.70;;;;;;5014199;28;20208;-84
2023/09/12 15:15:58;;;;;;;3.07;2.70;;;30.40;82.80;;;;;;5007314;28;20610;-83
2023/09/12 15:18:23;;;;;;;4.13;2.60;;;30.40;81.20;;;;;;4995557;28;20184;-82
2023/09/12 15:20:52;;;;;;;2.77;2.03;;;30.40;82.30;;;;;;5001522;28;20201;-84
2023/09/12 15:23:18;;;;;;;7.73;2.87;;;30.30;82.30;;;;;;5011724;28;20652;-83
2023/09/12 15:25:44;;;;;;;8.60;3.33;;;30.30;82.30;;;;;;5005464;28;20526;-83
2023/09/12 15:28:09;;;;;;;3.50;2.60;;;30.20;82.90;;;;;;5002979;28;20582;-83
2023/09/12 15:30:35;;;;;;;2.47;2.00;;;30.20;83.50;;;;;;5012108;28;20587;-84
2023/09/12 15:33:00;;;;;;;2.40;1.70;;;30.20;83.50;;;;;;5002320;28;20196;-83
2023/09/12 15:35:26;;;;;;;6.37;3.57;;;30.20;84.50;;;;;;5002236;28;20215;-82
2023/09/12 15:37:51;;;;;;;7.10;2.63;;;30.10;84.30;;;;;;5013992;28;20192;-84
2023/09/12 15:40:17;;;;;;;3.37;2.87;;;30.10;85.30;;;;;;5005983;28;20212;-84
2023/09/12 15:42:42;;;;;;;3.30;2.60;;;30.10;84.80;;;;;;5012944;28;20189;-84
2023/09/12 15:45:09;;;;;;;12.07;3.77;;;30.10;83.70;;;;;;5010943;28;20201;-84
2023/09/12 15:47:35;;;;;;;4.17;2.00;;;30.00;83.50;;;;;;5005746;28;20224;-84
2023/09/12 15:50:02;;;;;;;5.23;2.87;;;29.90;83.20;;;;;;5013556;28;20503;-84
2023/09/12 15:52:28;;;;;;;9.97;2.97;;;29.90;84.40;;;;;;5005566;28;20985;-83
2023/09/12 15:54:54;;;;;;;4.00;1.80;;;29.90;86.00;;;;;;5013266;28;20501;-84
2023/09/12 15:57:19;;;;;;;2.40;2.20;;;29.90;86.60;;;;;;4998198;28;20174;-83
2023/09/12 15:59:45;;;;;;;2.57;2.40;;;29.80;87.30;;;;;;5012816;28;20185;-83
2023/09/12 16:02:10;;;;;;;2.70;2.40;;;29.70;87.50;;;;;;4999284;28;20193;-85
2023/09/12 16:04:36;;;;;;;3.90;2.40;;;29.60;88.10;;;;;;5011087;28;20691;-84
2023/09/12 16:07:01;;;;;;;2.07;1.93;;;29.60;88.30;;;;;;5005098;28;20193;-85
2023/09/12 16:09:27;;;;;;;4.27;2.47;;;29.50;88.00;;;;;;5012558;28;20553;-83
2023/09/12 16:11:53;;;;;;;12.83;2.20;;;29.40;87.90;;;;;;5009630;28;20181;-84
2023/09/12 16:14:18;;;;;;;4.20;2.90;;;29.30;89.20;;;;;;5003140;28;20200;-84
2023/09/12 16:16:44;;;;;;;2.33;2.17;;;29.20;89.90;;;;;;5011422;28;20793;-84
2023/09/12 16:19:10;;;;;;;3.40;2.30;;;29.10;90.60;;;;;;5012628;28;20629;-84
2023/09/12 16:21:37;;;;;;;24.63;3.73;;;28.90;90.90;;;;;;4999199;28;20656;-83
2023/09/12 16:24:02;;;;;;;2.10;1.80;;;28.80;91.10;;;;;;4998909;28;20427;-85
2023/09/12 16:26:28;;;;;;;4.53;2.97;;;28.70;91.50;;;;;;5012664;28;20857;-84
2023/09/12 16:28:54;;;;;;;3.83;2.23;;;28.50;92.00;;;;;;4996089;28;20182;-84
2023/09/12 16:31:19;;;;;;;2.87;2.03;;;28.40;92.50;;;;;;4997184;28;20174;-85
2023/09/12 16:33:45;;;;;;;16.37;2.60;;;28.30;92.60;;;;;;5012724;28;20192;-85
2023/09/12 16:36:10;;;;;;;3.43;2.20;;;28.20;93.00;;;;;;5009382;28;20201;-85
2023/09/12 16:38:36;;;;;;;3.63;2.23;;;28.10;93.20;;;;;;4995308;28;20269;-85
2023/09/12 16:41:02;;;;;;;1.93;1.60;;;28.00;93.30;;;;;;4993100;28;20235;-85
2023/09/12 16:43:27;;;;;;;4.53;2.80;;;27.90;93.60;;;;;;4993374;28;20706;-85
2023/09/12 16:45:53;;;;;;;2.63;2.17;;;27.80;94.00;;;;;;5000623;28;20202;-85